createdAt,value
2019-03-22T00:00:57.077Z,75.10
2019-03-22T00:01:57.071Z,72.70
2019-03-22T00:02:57.063Z,66.90
2019-03-22T00:03:57.055Z,65.20
2019-03-22T00:04:57.049Z,68.80
2019-03-22T00:05:57.041Z,60.40
2019-03-22T00:06:57.042Z,61.40
2019-03-22T00:07:57.027Z,68.50
2019-03-22T00:08:57.021Z,59.40
2019-03-22T00:09:57.015Z,64.60
2019-03-22T00:10:57.008Z,64.80
2019-03-22T00:11:56.994Z,63.10
2019-03-22T00:12:56.995Z,57.70
2019-03-22T00:13:56.984Z,56.50
2019-03-22T00:14:56.976Z,55.90
2019-03-22T00:15:56.972Z,67.30
2019-03-22T00:16:56.965Z,63.90
2019-03-22T00:17:56.959Z,60.60
2019-03-22T00:18:56.951Z,62.60
2019-03-22T00:19:56.942Z,59.10
2019-03-22T00:20:56.940Z,57.50
2019-03-22T00:21:56.927Z,61.90
2019-03-22T00:22:56.923Z,70.10
2019-03-22T00:23:56.915Z,64.30
2019-03-22T00:24:56.906Z,69.00
2019-03-22T00:25:56.900Z,63.60
2019-03-22T00:26:56.893Z,65.20
2019-03-22T00:27:56.887Z,65.70
2019-03-22T00:28:56.886Z,72.30
2019-03-22T00:29:56.872Z,64.50
2019-03-22T00:30:56.871Z,63.40
2019-03-22T00:31:56.858Z,68.30
2019-03-22T00:32:56.854Z,63.30
2019-03-22T00:33:56.845Z,66.00
2019-03-22T00:34:56.843Z,65.80
2019-03-22T00:35:56.834Z,74.10
2019-03-22T00:36:56.824Z,74.30
2019-03-22T00:37:56.818Z,68.90
2019-03-22T00:38:56.815Z,63.00
2019-03-22T00:39:56.803Z,72.90
2019-03-22T00:40:56.798Z,70.10
2019-03-22T00:41:56.790Z,67.70
2019-03-22T00:42:56.783Z,71.20
2019-03-22T00:43:56.776Z,66.50
2019-03-22T00:44:56.775Z,66.10
2019-03-22T00:45:56.762Z,70.20
2019-03-22T00:46:56.757Z,68.10
2019-03-22T00:47:56.747Z,69.80
2019-03-22T00:48:56.742Z,62.30
2019-03-22T00:49:56.735Z,59.00
2019-03-22T00:50:56.728Z,64.00
2019-03-22T00:51:56.726Z,65.20
2019-03-22T00:52:56.713Z,65.80
2019-03-22T00:53:56.708Z,63.00
2019-03-22T00:54:56.705Z,69.10
2019-03-22T00:55:56.698Z,65.00
2019-03-22T00:56:56.683Z,72.00
2019-03-22T00:57:56.678Z,66.80
2019-03-22T00:58:56.672Z,66.60
2019-03-22T00:59:56.668Z,67.30
2019-03-22T01:00:56.661Z,69.40
2019-03-22T01:01:56.657Z,67.20
2019-03-22T01:02:56.645Z,69.60
2019-03-22T01:03:56.643Z,69.40
2019-03-22T01:04:56.632Z,70.20
2019-03-22T01:05:56.624Z,63.60
2019-03-22T01:06:56.621Z,62.60
2019-03-22T01:07:56.616Z,66.30
2019-03-22T01:08:56.606Z,60.70
2019-03-22T01:09:56.598Z,65.40
2019-03-22T01:10:56.593Z,57.40
2019-03-22T01:11:56.590Z,56.70
2019-03-22T01:12:56.579Z,55.00
2019-03-22T01:13:56.574Z,60.00
2019-03-22T01:14:56.563Z,59.50
2019-03-22T01:15:56.557Z,56.80
2019-03-22T01:16:56.559Z,63.00
2019-03-22T01:17:56.546Z,54.30
2019-03-22T01:18:56.542Z,56.80
2019-03-22T01:19:56.531Z,53.90
2019-03-22T01:20:56.524Z,49.70
2019-03-22T01:21:56.537Z,52.50
2019-03-22T01:22:56.514Z,53.50
2019-03-22T01:23:56.502Z,54.10
2019-03-22T01:24:56.498Z,54.20
2019-03-22T01:25:56.493Z,51.00
2019-03-22T01:26:56.487Z,54.90
2019-03-22T01:27:56.487Z,53.20
2019-03-22T01:28:56.470Z,54.40
2019-03-22T01:29:56.465Z,53.50
2019-03-22T01:30:56.459Z,53.40
2019-03-22T01:31:56.457Z,54.00
2019-03-22T01:32:56.446Z,54.70
2019-03-22T01:33:56.461Z,51.10
2019-03-22T01:34:56.429Z,48.60
2019-03-22T01:35:56.430Z,54.50
2019-03-22T01:36:56.420Z,51.00
2019-03-22T01:37:56.413Z,53.60
2019-03-22T01:38:56.403Z,56.10
2019-03-22T01:39:56.398Z,54.40
2019-03-22T01:40:56.392Z,52.20
2019-03-22T01:41:56.390Z,53.40
2019-03-22T01:42:56.377Z,58.40
2019-03-22T01:43:56.369Z,57.60
2019-03-22T01:44:56.368Z,58.10
2019-03-22T01:45:56.358Z,55.40
2019-03-22T01:46:56.353Z,58.20
2019-03-22T01:47:56.345Z,57.80
2019-03-22T01:48:56.339Z,55.40
2019-03-22T01:49:56.331Z,56.30
2019-03-22T01:50:56.325Z,59.10
2019-03-22T01:51:56.317Z,58.10
2019-03-22T01:52:56.313Z,60.90
2019-03-22T01:53:56.307Z,60.00
2019-03-22T01:54:56.303Z,57.90
2019-03-22T01:55:56.293Z,54.80
2019-03-22T01:56:56.292Z,57.60
2019-03-22T01:57:56.280Z,58.00
2019-03-22T01:58:56.274Z,60.50
2019-03-22T01:59:56.261Z,58.80
2019-03-22T02:00:56.260Z,56.60
2019-03-22T02:01:56.256Z,54.50
2019-03-22T02:02:56.253Z,55.10
2019-03-22T02:03:56.251Z,54.30
2019-03-22T02:04:56.235Z,56.60
2019-03-22T02:05:56.226Z,52.00
2019-03-22T02:06:56.225Z,56.00
2019-03-22T02:07:56.217Z,54.80
2019-03-22T02:08:56.208Z,56.30
2019-03-22T02:09:56.202Z,56.90
2019-03-22T02:10:56.196Z,58.00
2019-03-22T02:11:56.188Z,57.80
2019-03-22T02:12:56.186Z,59.60
2019-03-22T02:13:56.177Z,58.80
2019-03-22T02:14:56.176Z,59.60
2019-03-22T02:15:56.161Z,55.60
2019-03-22T02:16:56.156Z,52.60
2019-03-22T02:17:56.147Z,59.30
2019-03-22T02:18:56.143Z,58.30
2019-03-22T02:19:56.140Z,55.80
2019-03-22T02:20:56.128Z,61.10
2019-03-22T02:21:56.120Z,59.70
2019-03-22T02:22:56.118Z,54.10
2019-03-22T02:23:56.109Z,56.10
2019-03-22T02:24:56.103Z,58.10
2019-03-22T02:25:56.108Z,62.90
2019-03-22T02:26:56.096Z,56.00
2019-03-22T02:28:04.199Z,57.60
2019-03-22T02:28:56.078Z,57.60
2019-03-22T02:29:56.075Z,58.20
2019-03-22T02:30:56.066Z,56.80
2019-03-22T02:31:56.063Z,60.80
2019-03-22T02:32:56.054Z,60.70
2019-03-22T02:33:56.080Z,57.10
2019-03-22T02:34:56.052Z,55.10
2019-03-22T02:35:56.027Z,58.40
2019-03-22T02:36:56.031Z,58.80
2019-03-22T02:37:56.020Z,58.50
2019-03-22T02:38:56.017Z,65.40
2019-03-22T02:39:56.011Z,61.60
2019-03-22T02:40:56.000Z,64.00
2019-03-22T02:41:55.998Z,65.10
2019-03-22T02:42:55.992Z,61.70
2019-03-22T02:43:56.055Z,60.60
2019-03-22T02:44:55.976Z,63.30
2019-03-22T02:45:55.971Z,61.70
2019-03-22T02:46:55.965Z,63.00
2019-03-22T02:47:55.962Z,64.20
2019-03-22T02:48:55.962Z,59.10
2019-03-22T02:49:55.944Z,59.40
2019-03-22T02:50:56.456Z,59.60
2019-03-22T02:51:55.928Z,63.20
2019-03-22T02:52:55.928Z,67.30
2019-03-22T02:53:55.920Z,63.60
2019-03-22T02:54:55.914Z,63.30
2019-03-22T02:55:55.982Z,59.40
2019-03-22T02:56:55.904Z,59.00
2019-03-22T02:57:55.898Z,61.90
2019-03-22T02:58:59.197Z,57.90
2019-03-22T02:59:55.880Z,58.10
2019-03-22T03:00:55.875Z,60.80
2019-03-22T03:01:55.869Z,59.10
2019-03-22T03:02:55.864Z,64.50
2019-03-22T03:03:55.856Z,61.60
2019-03-22T03:04:55.857Z,61.70
2019-03-22T03:05:55.842Z,62.50
2019-03-22T03:06:55.840Z,64.20
2019-03-22T03:07:55.833Z,66.90
2019-03-22T03:08:55.829Z,62.90
2019-03-22T03:09:55.816Z,59.20
2019-03-22T03:10:55.815Z,65.40
2019-03-22T03:11:55.805Z,61.40
2019-03-22T03:12:55.800Z,60.90
2019-03-22T03:13:55.800Z,61.60
2019-03-22T03:14:55.791Z,57.60
2019-03-22T03:15:55.779Z,55.90
2019-03-22T03:16:55.774Z,60.60
2019-03-22T03:17:55.769Z,56.70
2019-03-22T03:18:55.765Z,61.70
2019-03-22T03:19:55.758Z,62.20
2019-03-22T03:20:55.749Z,59.20
2019-03-22T03:21:55.746Z,58.70
2019-03-22T03:22:55.737Z,62.50
2019-03-22T03:23:55.734Z,65.10
2019-03-22T03:24:55.730Z,64.00
2019-03-22T03:25:55.721Z,63.70
2019-03-22T03:26:55.713Z,64.70
2019-03-22T03:27:55.707Z,67.40
2019-03-22T03:28:55.705Z,60.10
2019-03-22T03:29:55.699Z,61.70
2019-03-22T03:30:55.688Z,61.50
2019-03-22T03:31:55.686Z,64.30
2019-03-22T03:32:55.683Z,60.70
2019-03-22T03:33:55.676Z,62.00
2019-03-22T03:34:55.674Z,66.20
2019-03-22T03:35:55.657Z,66.20
2019-03-22T03:36:55.654Z,61.70
2019-03-22T03:37:55.650Z,61.30
2019-03-22T03:38:55.642Z,64.20
2019-03-22T03:39:55.639Z,61.90
2019-03-22T03:40:55.632Z,62.40
2019-03-22T03:41:55.621Z,64.10
2019-03-22T03:42:55.614Z,62.20
2019-03-22T03:43:55.614Z,61.80
2019-03-22T03:44:55.601Z,59.60
2019-03-22T03:45:55.595Z,58.90
2019-03-22T03:46:55.590Z,58.50
2019-03-22T03:47:55.583Z,63.80
2019-03-22T03:48:55.575Z,57.70
2019-03-22T03:49:55.574Z,60.10
2019-03-22T03:50:55.560Z,60.40
2019-03-22T03:51:55.559Z,61.30
2019-03-22T03:52:55.556Z,61.40
2019-03-22T03:53:55.549Z,64.00
2019-03-22T03:54:55.630Z,63.60
2019-03-22T03:55:55.533Z,59.70
2019-03-22T03:56:55.526Z,59.70
2019-03-22T03:57:55.527Z,59.70
2019-03-22T03:58:55.516Z,63.00
2019-03-22T03:59:55.520Z,59.80
2019-03-22T04:00:55.519Z,57.00
2019-03-22T04:01:55.498Z,52.00
2019-03-22T04:02:55.494Z,54.40
2019-03-22T04:03:55.498Z,57.70
2019-03-22T04:04:55.476Z,57.50
2019-03-22T04:05:55.474Z,59.10
2019-03-22T04:06:55.478Z,58.70
2019-03-22T04:07:55.461Z,62.70
2019-03-22T04:08:55.451Z,61.20
2019-03-22T04:09:55.444Z,59.50
2019-03-22T04:10:55.437Z,59.30
2019-03-22T04:11:55.444Z,59.00
2019-03-22T04:12:55.432Z,63.00
2019-03-22T04:13:55.439Z,58.70
2019-03-22T04:14:55.432Z,60.70
2019-03-22T04:15:55.429Z,56.80
2019-03-22T04:16:55.436Z,58.80
2019-03-22T04:17:55.395Z,58.00
2019-03-22T04:18:55.391Z,59.30
2019-03-22T04:19:55.387Z,57.60
2019-03-22T04:20:55.380Z,63.10
2019-03-22T04:21:55.374Z,59.70
2019-03-22T04:22:55.367Z,60.70
2019-03-22T04:23:55.360Z,58.50
2019-03-22T04:24:55.358Z,59.90
2019-03-22T04:25:55.357Z,60.10
2019-03-22T04:26:55.346Z,60.20
2019-03-22T04:27:55.344Z,60.70
2019-03-22T04:29:06.579Z,63.20
2019-03-22T04:29:55.325Z,61.30
2019-03-22T04:30:55.319Z,62.00
2019-03-22T04:31:55.322Z,60.90
2019-03-22T04:32:55.301Z,60.60
2019-03-22T04:33:55.296Z,62.70
2019-03-22T04:34:55.293Z,58.00
2019-03-22T04:35:55.282Z,64.00
2019-03-22T04:36:55.278Z,62.30
2019-03-22T04:37:55.272Z,62.20
2019-03-22T04:38:55.268Z,60.60
2019-03-22T04:39:55.261Z,64.30
2019-03-22T04:40:55.250Z,61.20
2019-03-22T04:41:55.248Z,62.60
2019-03-22T04:42:55.242Z,63.50
2019-03-22T04:43:55.242Z,62.90
2019-03-22T04:44:55.244Z,61.80
2019-03-22T04:45:55.233Z,61.50
2019-03-22T04:46:55.219Z,61.60
2019-03-22T04:47:55.212Z,65.20
2019-03-22T04:48:55.206Z,64.90
2019-03-22T04:49:55.200Z,63.10
2019-03-22T04:50:55.195Z,62.70
2019-03-22T04:51:55.194Z,62.80
2019-03-22T04:52:55.182Z,60.10
2019-03-22T04:53:55.174Z,62.70
2019-03-22T04:54:55.169Z,59.90
2019-03-22T04:55:55.161Z,61.60
2019-03-22T04:56:55.155Z,67.20
2019-03-22T04:57:55.151Z,67.20
2019-03-22T04:58:55.147Z,66.30
2019-03-22T04:59:55.138Z,64.20
2019-03-22T05:00:55.132Z,67.90
2019-03-22T05:01:55.128Z,68.10
2019-03-22T05:02:55.118Z,63.50
2019-03-22T05:03:55.113Z,65.70
2019-03-22T05:04:55.109Z,65.00
2019-03-22T05:05:55.101Z,61.60
2019-03-22T05:06:55.096Z,63.70
2019-03-22T05:07:55.090Z,66.40
2019-03-22T05:08:55.085Z,66.30
2019-03-22T05:09:55.076Z,63.20
2019-03-22T05:10:55.071Z,64.90
2019-03-22T05:11:55.063Z,67.20
2019-03-22T05:12:55.058Z,67.50
2019-03-22T05:13:55.053Z,65.00
2019-03-22T05:14:55.050Z,64.90
2019-03-22T05:15:55.042Z,62.90
2019-03-22T05:16:55.034Z,62.50
2019-03-22T05:17:55.031Z,65.60
2019-03-22T05:18:55.021Z,67.60
2019-03-22T05:19:55.015Z,66.20
2019-03-22T05:20:55.014Z,64.80
2019-03-22T05:21:55.007Z,65.00
2019-03-22T05:22:54.997Z,66.30
2019-03-22T05:23:54.991Z,65.30
2019-03-22T05:24:54.989Z,66.70
2019-03-22T05:25:54.979Z,64.50
2019-03-22T05:26:54.975Z,65.10
2019-03-22T05:27:54.967Z,63.90
2019-03-22T05:28:54.963Z,62.60
2019-03-22T05:29:54.954Z,63.90
2019-03-22T05:30:54.951Z,66.50
2019-03-22T05:31:54.942Z,65.50
2019-03-22T05:32:54.939Z,68.00
2019-03-22T05:33:54.931Z,67.10
2019-03-22T05:34:54.925Z,61.40
2019-03-22T05:35:54.919Z,63.60
2019-03-22T05:36:54.911Z,64.20
2019-03-22T05:37:54.906Z,61.30
2019-03-22T05:38:54.901Z,64.70
2019-03-22T05:39:54.897Z,65.30
2019-03-22T05:40:54.889Z,65.10
2019-03-22T05:41:54.882Z,65.10
2019-03-22T05:42:54.876Z,64.80
2019-03-22T05:43:54.870Z,64.30
2019-03-22T05:44:54.869Z,65.40
2019-03-22T05:45:54.862Z,65.20
2019-03-22T05:46:54.853Z,66.80
2019-03-22T05:47:54.846Z,64.00
2019-03-22T05:48:54.839Z,66.80
2019-03-22T05:49:54.837Z,67.70
2019-03-22T05:50:54.830Z,68.50
2019-03-22T05:51:54.823Z,66.20
2019-03-22T05:52:54.817Z,69.80
2019-03-22T05:53:54.814Z,67.90
2019-03-22T05:54:54.807Z,66.40
2019-03-22T05:55:54.802Z,65.60
2019-03-22T05:56:54.795Z,64.90
2019-03-22T05:57:54.787Z,67.00
2019-03-22T05:58:54.781Z,66.10
2019-03-22T05:59:54.775Z,60.30
2019-03-22T06:00:54.771Z,62.40
2019-03-22T06:01:54.783Z,60.40
2019-03-22T06:02:54.757Z,62.30
2019-03-22T06:03:54.753Z,59.40
2019-03-22T06:04:54.745Z,62.30
2019-03-22T06:05:54.739Z,66.00
2019-03-22T06:06:54.735Z,64.40
2019-03-22T06:07:54.729Z,61.40
2019-03-22T06:08:54.721Z,61.60
2019-03-22T06:09:54.715Z,60.60
2019-03-22T06:10:54.711Z,59.30
2019-03-22T06:11:54.707Z,62.10
2019-03-22T06:12:54.699Z,59.10
2019-03-22T06:13:54.693Z,64.20
2019-03-22T06:14:54.688Z,65.60
2019-03-22T06:15:54.682Z,59.70
2019-03-22T06:16:54.675Z,58.60
2019-03-22T06:17:54.668Z,61.10
2019-03-22T06:18:54.663Z,60.00
2019-03-22T06:19:54.659Z,60.30
2019-03-22T06:20:54.668Z,62.00
2019-03-22T06:21:54.649Z,61.00
2019-03-22T06:22:54.639Z,59.80
2019-03-22T06:23:54.637Z,61.10
2019-03-22T06:24:54.627Z,59.80
2019-03-22T06:25:54.622Z,59.20
2019-03-22T06:26:54.618Z,55.90
2019-03-22T06:27:54.614Z,60.80
2019-03-22T06:28:54.605Z,58.70
2019-03-22T06:29:54.829Z,56.80
2019-03-22T06:30:54.590Z,57.50
2019-03-22T06:31:54.594Z,55.90
2019-03-22T06:32:54.581Z,57.70
2019-03-22T06:33:54.576Z,54.70
2019-03-22T06:34:54.571Z,54.30
2019-03-22T06:35:54.563Z,53.50
2019-03-22T06:36:54.557Z,52.80
2019-03-22T06:37:54.553Z,58.80
2019-03-22T06:38:54.554Z,58.50
2019-03-22T06:39:54.538Z,54.50
2019-03-22T06:40:54.534Z,56.10
2019-03-22T06:41:54.529Z,53.60
2019-03-22T06:42:54.524Z,58.10
2019-03-22T06:43:54.516Z,57.40
2019-03-22T06:44:54.516Z,57.30
2019-03-22T06:45:54.575Z,55.60
2019-03-22T06:46:54.497Z,59.10
2019-03-22T06:47:54.493Z,55.00
2019-03-22T06:48:54.487Z,53.60
2019-03-22T06:49:54.483Z,50.90
2019-03-22T06:50:54.475Z,51.90
2019-03-22T06:51:54.469Z,50.10
2019-03-22T06:52:54.466Z,50.00
2019-03-22T06:53:54.459Z,50.10
2019-03-22T06:54:54.451Z,50.50
2019-03-22T06:55:54.448Z,49.30
2019-03-22T06:56:54.439Z,52.40
2019-03-22T06:57:54.436Z,49.40
2019-03-22T06:58:54.427Z,50.20
2019-03-22T07:00:05.497Z,51.60
2019-03-22T07:00:54.416Z,49.80
2019-03-22T07:01:54.409Z,50.70
2019-03-22T07:02:54.406Z,49.80
2019-03-22T07:03:54.397Z,50.90
2019-03-22T07:04:54.391Z,51.40
2019-03-22T07:05:54.386Z,51.00
2019-03-22T07:06:54.380Z,49.70
2019-03-22T07:07:54.372Z,53.70
2019-03-22T07:08:54.367Z,51.70
2019-03-22T07:09:54.366Z,52.70
2019-03-22T07:10:54.356Z,50.00
2019-03-22T07:11:54.349Z,49.50
2019-03-22T07:12:54.344Z,47.10
2019-03-22T07:13:54.336Z,46.60
2019-03-22T07:14:54.333Z,46.90
2019-03-22T07:15:54.327Z,46.10
2019-03-22T07:16:54.320Z,48.00
2019-03-22T07:17:54.313Z,43.50
2019-03-22T07:18:54.313Z,42.60
2019-03-22T07:19:54.305Z,40.60
2019-03-22T07:20:54.296Z,37.90
2019-03-22T07:21:54.289Z,38.10
2019-03-22T07:22:54.287Z,37.70
2019-03-22T07:23:54.277Z,38.90
2019-03-22T07:24:54.277Z,39.70
2019-03-22T07:25:54.267Z,39.20
2019-03-22T07:26:54.264Z,38.10
2019-03-22T07:27:54.255Z,41.60
2019-03-22T07:28:54.248Z,37.20
2019-03-22T07:29:54.243Z,38.70
2019-03-22T07:30:54.238Z,38.00
2019-03-22T07:31:54.235Z,39.30
2019-03-22T07:32:54.226Z,43.90
2019-03-22T07:33:54.219Z,43.90
2019-03-22T07:34:54.215Z,41.80
2019-03-22T07:35:54.207Z,44.40
2019-03-22T07:36:54.201Z,43.60
2019-03-22T07:37:54.200Z,44.40
2019-03-22T07:38:54.191Z,45.10
2019-03-22T07:39:54.182Z,40.90
2019-03-22T07:40:54.179Z,43.70
2019-03-22T07:41:54.171Z,40.60
2019-03-22T07:42:54.168Z,43.20
2019-03-22T07:43:54.162Z,42.90
2019-03-22T07:44:54.156Z,41.60
2019-03-22T07:45:54.151Z,43.00
2019-03-22T07:46:54.157Z,42.70
2019-03-22T07:47:55.886Z,45.20
2019-03-22T07:48:54.133Z,45.00
2019-03-22T07:49:54.132Z,45.10
2019-03-22T07:50:54.125Z,44.90
2019-03-22T07:51:54.114Z,45.00
2019-03-22T07:52:54.108Z,44.70
2019-03-22T07:53:54.102Z,43.40
2019-03-22T07:54:54.098Z,41.70
2019-03-22T07:55:54.090Z,42.60
2019-03-22T07:56:54.091Z,42.10
2019-03-22T07:57:54.079Z,42.80
2019-03-22T07:58:54.075Z,42.70
2019-03-22T07:59:54.069Z,39.70
2019-03-22T08:00:54.063Z,41.60
2019-03-22T08:01:54.059Z,43.00
2019-03-22T08:02:54.080Z,43.40
2019-03-22T08:03:54.049Z,40.30
2019-03-22T08:04:54.042Z,39.60
2019-03-22T08:05:54.034Z,42.00
2019-03-22T08:06:54.029Z,43.30
2019-03-22T08:07:56.031Z,44.70
2019-03-22T08:08:54.018Z,41.70
2019-03-22T08:09:54.114Z,41.30
2019-03-22T08:10:54.003Z,43.00
2019-03-22T08:11:54.018Z,43.80
2019-03-22T08:12:53.997Z,43.60
2019-03-22T08:13:53.989Z,42.30
2019-03-22T08:14:53.986Z,42.90
2019-03-22T08:15:53.986Z,43.10
2019-03-22T08:16:53.967Z,41.10
2019-03-22T08:17:53.983Z,44.30
2019-03-22T08:18:53.959Z,40.70
2019-03-22T08:19:53.963Z,41.00
2019-03-22T08:20:53.981Z,41.90
2019-03-22T08:21:53.943Z,42.00
2019-03-22T08:22:53.936Z,41.80
2019-03-22T08:23:53.948Z,41.80
2019-03-22T08:24:53.962Z,39.20
2019-03-22T08:25:53.928Z,38.90
2019-03-22T08:26:53.915Z,39.10
2019-03-22T08:27:53.918Z,41.00
2019-03-22T08:28:53.905Z,39.70
2019-03-22T08:29:53.898Z,41.00
2019-03-22T08:30:53.916Z,40.80
2019-03-22T08:31:53.886Z,42.00
2019-03-22T08:32:53.978Z,39.30
2019-03-22T08:33:53.878Z,41.10
2019-03-22T08:34:53.872Z,39.70
2019-03-22T08:35:53.865Z,42.10
2019-03-22T08:36:53.864Z,42.90
2019-03-22T08:37:53.857Z,41.30
2019-03-22T08:38:53.889Z,42.40
2019-03-22T08:39:55.905Z,42.70
2019-03-22T08:40:53.846Z,44.10
2019-03-22T08:41:53.835Z,41.70
2019-03-22T08:42:53.828Z,41.70
2019-03-22T08:43:53.844Z,40.50
2019-03-22T08:44:53.830Z,44.70
2019-03-22T08:45:53.853Z,40.80
2019-03-22T08:46:53.814Z,42.90
2019-03-22T08:47:53.802Z,40.90
2019-03-22T08:48:53.802Z,43.50
2019-03-22T08:49:53.872Z,42.70
2019-03-22T08:50:53.843Z,42.00
2019-03-22T08:51:53.785Z,42.80
2019-03-22T08:52:53.783Z,45.10
2019-03-22T08:53:55.624Z,40.80
2019-03-22T08:54:53.763Z,39.80
2019-03-22T08:55:53.806Z,43.40
2019-03-22T08:56:53.798Z,40.90
2019-03-22T08:57:53.752Z,41.60
2019-03-22T08:58:53.743Z,40.00
2019-03-22T08:59:53.739Z,40.90
2019-03-22T09:00:57.800Z,44.20
2019-03-22T09:01:53.802Z,39.80
2019-03-22T09:02:53.741Z,42.10
2019-03-22T09:03:53.738Z,46.40
2019-03-22T09:04:53.727Z,45.40
2019-03-22T09:05:53.749Z,45.70
2019-03-22T09:06:53.734Z,42.60
2019-03-22T09:07:53.753Z,43.40
2019-03-22T09:08:53.689Z,41.80
2019-03-22T09:09:53.762Z,45.30
2019-03-22T09:10:53.696Z,44.30
2019-03-22T09:11:53.706Z,47.20
2019-03-22T09:12:53.673Z,44.20
2019-03-22T09:13:54.029Z,44.60
2019-03-22T09:14:53.660Z,47.10
2019-03-22T09:15:53.708Z,44.50
2019-03-22T09:16:53.653Z,47.40
2019-03-22T09:17:53.668Z,45.30
2019-03-22T09:18:53.701Z,44.90
2019-03-22T09:19:53.690Z,47.80
2019-03-22T09:20:53.662Z,47.50
2019-03-22T09:21:53.645Z,47.50
2019-03-22T09:22:53.666Z,47.10
2019-03-22T09:23:53.617Z,44.60
2019-03-22T09:24:53.622Z,45.60
2019-03-22T09:25:53.603Z,45.00
2019-03-22T09:26:53.642Z,45.70
2019-03-22T09:27:53.603Z,47.00
2019-03-22T09:28:53.589Z,44.90
2019-03-22T09:29:53.593Z,44.50
2019-03-22T09:30:53.594Z,44.20
2019-03-22T09:31:53.826Z,42.90
2019-03-22T09:32:53.572Z,43.70
2019-03-22T09:33:53.602Z,43.40
2019-03-22T09:34:53.586Z,43.80
2019-03-22T09:35:53.552Z,42.90
2019-03-22T09:36:53.597Z,44.00
2019-03-22T09:37:53.549Z,42.90
2019-03-22T09:38:53.549Z,45.50
2019-03-22T09:39:53.589Z,43.40
2019-03-22T09:40:53.547Z,42.50
2019-03-22T09:41:53.521Z,44.10
2019-03-22T09:42:53.526Z,44.50
2019-03-22T09:43:53.513Z,45.40
2019-03-22T09:44:53.639Z,43.30
2019-03-22T09:45:53.510Z,47.10
2019-03-22T09:46:53.505Z,46.90
2019-03-22T09:47:53.529Z,44.90
2019-03-22T09:48:53.501Z,45.30
2019-03-22T09:49:53.484Z,48.60
2019-03-22T09:50:53.480Z,45.30
2019-03-22T09:51:55.208Z,44.90
2019-03-22T09:52:53.481Z,46.40
2019-03-22T09:53:53.467Z,42.90
2019-03-22T09:54:53.459Z,43.00
2019-03-22T09:55:53.468Z,45.10
2019-03-22T09:56:53.479Z,43.60
2019-03-22T09:57:53.443Z,45.90
2019-03-22T09:58:53.442Z,47.90
2019-03-22T09:59:53.431Z,46.70
2019-03-22T10:00:53.505Z,48.80
2019-03-22T10:01:53.434Z,45.70
2019-03-22T10:02:53.545Z,45.40
2019-03-22T10:03:53.460Z,48.60
2019-03-22T10:04:53.422Z,48.60
2019-03-22T10:05:53.406Z,47.70
2019-03-22T10:06:53.401Z,46.10
2019-03-22T10:07:53.398Z,46.80
2019-03-22T10:08:53.439Z,47.30
2019-03-22T10:09:53.398Z,48.30
2019-03-22T10:10:53.380Z,45.50
2019-03-22T10:11:53.383Z,47.90
2019-03-22T10:12:53.367Z,47.40
2019-03-22T10:13:53.363Z,46.30
2019-03-22T10:14:53.364Z,45.60
2019-03-22T10:15:53.355Z,45.60
2019-03-22T10:16:53.403Z,50.60
2019-03-22T10:17:53.356Z,47.30
2019-03-22T10:18:53.399Z,49.30
2019-03-22T10:19:53.334Z,49.70
2019-03-22T10:20:53.329Z,47.90
2019-03-22T10:21:53.349Z,48.00
2019-03-22T10:22:53.329Z,46.00
2019-03-22T10:23:53.324Z,51.20
2019-03-22T10:24:53.345Z,52.60
2019-03-22T10:25:53.331Z,54.00
2019-03-22T10:26:53.307Z,52.50
2019-03-22T10:27:53.330Z,51.70
2019-03-22T10:28:53.348Z,53.40
2019-03-22T10:29:53.309Z,54.00
2019-03-22T10:30:53.314Z,53.30
2019-03-22T10:31:53.278Z,51.00
2019-03-22T10:32:53.272Z,52.80
2019-03-22T10:33:53.267Z,49.60
2019-03-22T10:34:53.336Z,50.90
2019-03-22T10:35:53.259Z,51.10
2019-03-22T10:36:53.257Z,51.50
2019-03-22T10:38:00.338Z,55.40
2019-03-22T10:38:53.245Z,56.50
2019-03-22T10:39:53.258Z,55.80
2019-03-22T10:40:53.270Z,56.80
2019-03-22T10:41:53.251Z,61.70
2019-03-22T10:42:53.319Z,62.00
2019-03-22T10:43:53.244Z,63.70
2019-03-22T10:44:53.218Z,66.00
2019-03-22T10:45:53.221Z,62.70
2019-03-22T10:46:53.259Z,59.30
2019-03-22T10:47:53.209Z,58.90
2019-03-22T10:48:53.200Z,58.20
2019-03-22T10:49:53.238Z,59.20
2019-03-22T10:50:53.194Z,61.00
2019-03-22T10:51:57.418Z,61.00
2019-03-22T10:52:53.195Z,61.40
2019-03-22T10:53:53.177Z,60.40
2019-03-22T10:54:53.216Z,62.60
2019-03-22T10:55:53.168Z,63.00
2019-03-22T10:56:53.164Z,64.00
2019-03-22T10:57:55.494Z,64.60
2019-03-22T10:58:53.156Z,61.90
2019-03-22T10:59:53.150Z,61.40
2019-03-22T11:00:53.150Z,62.20
2019-03-22T11:02:03.363Z,65.10
2019-03-22T11:02:53.138Z,61.40
2019-03-22T11:03:53.268Z,63.90
2019-03-22T11:04:53.125Z,59.70
2019-03-22T11:05:53.124Z,59.80
2019-03-22T11:06:53.121Z,64.00
2019-03-22T11:07:53.113Z,59.60
2019-03-22T11:08:53.108Z,56.40
2019-03-22T11:09:53.107Z,58.10
2019-03-22T11:10:53.104Z,60.00
2019-03-22T11:11:53.100Z,66.00
2019-03-22T11:12:53.092Z,65.50
2019-03-22T11:13:53.094Z,68.40
2019-03-22T11:14:53.086Z,64.10
2019-03-22T11:15:53.083Z,63.50
2019-03-22T11:16:53.081Z,65.30
2019-03-22T11:17:53.072Z,62.90
2019-03-22T11:18:53.065Z,61.80
2019-03-22T11:19:53.060Z,64.60
2019-03-22T11:20:53.057Z,63.40
2019-03-22T11:21:53.054Z,63.40
2019-03-22T11:22:53.051Z,64.40
2019-03-22T11:23:53.044Z,61.30
2019-03-22T11:24:53.039Z,57.90
2019-03-22T11:25:53.035Z,53.10
2019-03-22T11:26:53.029Z,55.50
2019-03-22T11:27:53.027Z,52.10
2019-03-22T11:28:53.024Z,51.00
2019-03-22T11:29:53.020Z,54.10
2019-03-22T11:30:53.015Z,53.20
2019-03-22T11:31:53.009Z,55.70
2019-03-22T11:32:53.006Z,56.40
2019-03-22T11:33:53.001Z,56.50
2019-03-22T11:34:52.997Z,58.20
2019-03-22T11:35:52.994Z,56.20
2019-03-22T11:36:52.991Z,54.00
2019-03-22T11:37:52.986Z,55.60
2019-03-22T11:38:52.983Z,55.10
2019-03-22T11:39:52.976Z,59.50
2019-03-22T11:40:52.975Z,58.00
2019-03-22T11:41:52.974Z,60.50
2019-03-22T11:42:52.972Z,57.60
2019-03-22T11:43:52.963Z,57.40
2019-03-22T11:44:52.957Z,55.50
2019-03-22T11:45:52.956Z,56.90
2019-03-22T11:46:52.952Z,54.60
2019-03-22T11:47:52.946Z,54.70
2019-03-22T11:48:52.943Z,52.40
2019-03-22T11:49:52.941Z,54.40
2019-03-22T11:50:52.933Z,53.80
2019-03-22T11:51:52.932Z,54.30
2019-03-22T11:52:52.927Z,54.70
2019-03-22T11:53:52.923Z,56.00
2019-03-22T11:54:52.922Z,55.60
2019-03-22T11:55:52.914Z,56.30
2019-03-22T11:56:52.913Z,55.50
2019-03-22T11:57:52.910Z,54.00
2019-03-22T11:58:52.907Z,52.60
2019-03-22T11:59:52.902Z,53.60
2019-03-22T12:00:52.908Z,56.50
2019-03-22T12:01:52.897Z,59.00
2019-03-22T12:02:52.894Z,57.60
2019-03-22T12:03:52.889Z,56.40
2019-03-22T12:04:52.885Z,57.20
2019-03-22T12:05:52.882Z,54.40
2019-03-22T12:06:52.880Z,54.30
2019-03-22T12:07:52.874Z,52.30
2019-03-22T12:08:52.872Z,52.50
2019-03-22T12:09:52.867Z,52.30
2019-03-22T12:10:52.863Z,49.30
2019-03-22T12:11:52.860Z,50.40
2019-03-22T12:12:52.855Z,50.10
2019-03-22T12:13:52.852Z,50.80
2019-03-22T12:14:52.848Z,53.00
2019-03-22T12:15:52.845Z,51.00
2019-03-22T12:16:52.840Z,49.70
2019-03-22T12:17:52.837Z,48.80
2019-03-22T12:18:52.835Z,51.20
2019-03-22T12:19:52.830Z,50.40
2019-03-22T12:20:52.827Z,50.50
2019-03-22T12:21:52.824Z,49.70
2019-03-22T12:22:52.823Z,50.60
2019-03-22T12:23:52.816Z,50.00
2019-03-22T12:24:52.814Z,50.70
2019-03-22T12:25:52.816Z,53.90
2019-03-22T12:26:52.808Z,54.10
2019-03-22T12:27:52.805Z,51.60
2019-03-22T12:28:52.799Z,53.60
2019-03-22T12:29:53.456Z,50.90
2019-03-22T12:30:52.792Z,50.50
2019-03-22T12:31:52.789Z,52.20
2019-03-22T12:32:52.787Z,51.80
2019-03-22T12:33:52.785Z,50.50
2019-03-22T12:34:52.780Z,51.70
2019-03-22T12:35:52.778Z,52.10
2019-03-22T12:36:52.773Z,51.70
2019-03-22T12:37:52.770Z,52.50
2019-03-22T12:38:52.773Z,55.10
2019-03-22T12:39:52.763Z,51.60
2019-03-22T12:40:52.758Z,51.60
2019-03-22T12:41:52.756Z,55.10
2019-03-22T12:42:52.757Z,53.40
2019-03-22T12:43:52.751Z,50.60
2019-03-22T12:44:52.749Z,51.80
2019-03-22T12:45:52.751Z,50.40
2019-03-22T12:46:52.739Z,50.00
2019-03-22T12:47:52.735Z,49.90
2019-03-22T12:48:52.731Z,49.80
2019-03-22T12:49:52.729Z,49.30
2019-03-22T12:50:52.727Z,48.70
2019-03-22T12:51:52.722Z,48.20
2019-03-22T12:52:52.720Z,47.90